Time;durP1;ratioP1;P1;durP2;ratioP2;P2;SDS_P1;SDS_P2;PMS_P1;PMS_P2;Temp;Humidity;BMP_temperature;BMP_pressure;BME280_temperature;BME280_humidity;BME280_pressure;Samples;Min_cycle;Max_cycle;Signal;HPM_P1;HPM_P2
2023/07/20 00:02:25;;;;;;;3.63;2.67;;;19.50;70.70;;;;;;5039966;28;20436;-73
2023/07/20 00:04:53;;;;;;;3.30;2.30;;;19.40;71.90;;;;;;5047939;28;20464;-74
2023/07/20 00:07:21;;;;;;;2.63;2.43;;;19.40;70.50;;;;;;5031323;28;20445;-73
2023/07/20 00:09:49;;;;;;;3.03;2.30;;;19.40;71.00;;;;;;5031072;28;20901;-73
2023/07/20 00:12:17;;;;;;;4.27;2.20;;;19.30;70.60;;;;;;5029840;28;21016;-74
2023/07/20 00:14:45;;;;;;;4.20;2.67;;;19.30;72.00;;;;;;5034501;28;20516;-74
2023/07/20 00:17:17;;;;;;;3.63;2.80;;;19.20;74.40;;;;;;5031108;28;20507;-73
2023/07/20 00:19:45;;;;;;;4.07;2.67;;;19.10;73.90;;;;;;5031167;28;20505;-74
2023/07/20 00:22:13;;;;;;;3.63;2.50;;;19.10;74.20;;;;;;5030601;28;20440;-74
2023/07/20 00:24:42;;;;;;;5.40;2.80;;;19.20;73.50;;;;;;5031140;28;20447;-73
2023/07/20 00:27:09;;;;;;;4.10;2.43;;;19.10;76.40;;;;;;5031157;28;20502;-74
2023/07/20 00:29:38;;;;;;;3.13;2.83;;;19.10;74.70;;;;;;5031373;28;20461;-74
2023/07/20 00:32:06;;;;;;;4.10;2.70;;;19.00;73.80;;;;;;5031139;28;20444;-74
2023/07/20 00:34:36;;;;;;;6.50;3.00;;;19.00;73.60;;;;;;5028022;28;20986;-74
2023/07/20 00:37:04;;;;;;;3.30;2.30;;;19.00;74.50;;;;;;5036303;28;20682;-74
2023/07/20 00:39:32;;;;;;;3.93;2.43;;;18.90;75.40;;;;;;5029481;28;20891;-74
2023/07/20 00:42:00;;;;;;;2.90;2.07;;;18.80;74.70;;;;;;5030560;28;20495;-74
2023/07/20 00:44:28;;;;;;;2.53;2.33;;;18.70;75.20;;;;;;5030845;28;20861;-74
2023/07/20 00:46:56;;;;;;;2.30;2.10;;;18.70;74.70;;;;;;5031485;28;20464;-74
2023/07/20 00:49:24;;;;;;;2.87;2.30;;;18.60;75.40;;;;;;5041645;28;20436;-74
2023/07/20 00:51:54;;;;;;;3.73;2.17;;;18.60;75.60;;;;;;5040745;28;20860;-74
2023/07/20 00:54:22;;;;;;;2.53;2.33;;;18.50;74.10;;;;;;5030854;28;20992;-74
2023/07/20 00:56:53;;;;;;;2.50;2.17;;;18.50;74.50;;;;;;5031737;28;20432;-74
2023/07/20 00:59:21;;;;;;;3.33;2.40;;;18.50;75.50;;;;;;5031486;28;20464;-74
2023/07/20 01:01:49;;;;;;;2.77;1.77;;;18.30;74.20;;;;;;5030895;28;20479;-74
2023/07/20 01:04:17;;;;;;;2.70;2.20;;;18.20;74.90;;;;;;5031466;28;20445;-74
2023/07/20 01:06:54;;;;;;;2.63;2.17;;;18.30;75.60;;;;;;5032096;28;20464;-74
2023/07/20 01:09:30;;;;;;;4.90;2.67;;;18.20;75.60;;;;;;5031305;28;20577;-74
2023/07/20 01:12:04;;;;;;;4.13;2.77;;;18.20;75.60;;;;;;5029707;28;20499;-71
2023/07/20 01:14:33;;;;;;;3.33;2.10;;;18.20;75.30;;;;;;5031195;28;20447;-74
2023/07/20 01:17:01;;;;;;;2.27;2.03;;;18.20;75.10;;;;;;5032013;28;20576;-73
2023/07/20 01:19:29;;;;;;;2.77;2.03;;;18.10;75.20;;;;;;5031655;28;20457;-73
2023/07/20 01:22:02;;;;;;;2.20;2.10;;;18.10;75.20;;;;;;5031919;28;20480;-73
2023/07/20 01:24:52;;;;;;;2.87;2.20;;;18.00;75.60;;;;;;5031336;28;20429;-73
2023/07/20 01:28:12;;;;;;;2.60;2.30;;;18.00;76.50;;;;;;5026357;28;20454;-72
2023/07/20 01:30:56;;;;;;;3.20;2.17;;;18.00;76.30;;;;;;4951072;29;20529;-74
2023/07/20 01:33:26;;;;;;;4.13;2.40;;;17.90;75.70;;;;;;4950586;29;20470;-73
2023/07/20 01:35:57;;;;;;;3.10;1.97;;;17.90;75.50;;;;;;4985692;28;20438;-74
2023/07/20 01:38:26;;;;;;;2.60;2.20;;;17.90;76.40;;;;;;5011933;28;20421;-74
2023/07/20 01:40:54;;;;;;;2.00;1.83;;;17.90;76.30;;;;;;5011770;28;20532;-73
2023/07/20 01:43:22;;;;;;;3.10;2.73;;;17.90;76.20;;;;;;5011653;28;21002;-73
2023/07/20 01:45:50;;;;;;;2.53;2.30;;;17.90;76.30;;;;;;5011204;28;20544;-74
2023/07/20 01:48:18;;;;;;;4.33;2.30;;;17.90;76.10;;;;;;5028127;28;20447;-73
2023/07/20 01:50:48;;;;;;;3.53;2.13;;;17.90;76.90;;;;;;5035205;28;20469;-73
2023/07/20 01:53:16;;;;;;;2.23;2.03;;;17.80;76.80;;;;;;5035249;28;20440;-74
2023/07/20 01:55:44;;;;;;;2.70;2.10;;;17.80;77.60;;;;;;5035249;28;20935;-74
2023/07/20 01:58:11;;;;;;;2.80;2.20;;;17.70;78.40;;;;;;5035212;28;20515;-75
2023/07/20 02:00:39;;;;;;;2.87;2.30;;;17.70;79.50;;;;;;5035207;28;20484;-73
2023/07/20 02:03:07;;;;;;;2.97;2.00;;;17.70;79.10;;;;;;5033178;28;20444;-73
2023/07/20 02:05:35;;;;;;;3.47;2.33;;;17.60;79.60;;;;;;5027327;28;20511;-73
2023/07/20 02:08:05;;;;;;;2.83;2.33;;;17.60;80.20;;;;;;5034735;28;20448;-73
2023/07/20 02:10:33;;;;;;;3.87;2.40;;;17.60;79.90;;;;;;5034751;28;20449;-73
2023/07/20 02:13:01;;;;;;;3.93;2.07;;;17.60;81.60;;;;;;5034086;28;20935;-73
2023/07/20 02:15:29;;;;;;;3.73;2.57;;;17.50;82.40;;;;;;5034763;28;20438;-73
2023/07/20 02:17:57;;;;;;;2.90;2.00;;;17.50;81.30;;;;;;5034217;28;20538;-73
2023/07/20 02:20:25;;;;;;;3.73;2.93;;;17.50;81.00;;;;;;5033569;28;20471;-73
2023/07/20 02:22:53;;;;;;;3.77;2.53;;;17.50;82.20;;;;;;5015346;28;20450;-73
2023/07/20 02:25:23;;;;;;;4.10;2.00;;;17.40;81.90;;;;;;5013819;28;20487;-73
2023/07/20 02:27:50;;;;;;;4.13;2.30;;;17.40;83.40;;;;;;5013457;28;20516;-74
2023/07/20 02:30:19;;;;;;;2.73;2.30;;;17.40;83.60;;;;;;5013317;28;20500;-73
2023/07/20 02:32:48;;;;;;;2.70;2.20;;;17.30;84.00;;;;;;5013458;28;20540;-73
2023/07/20 02:35:17;;;;;;;7.27;2.63;;;17.20;84.60;;;;;;5013349;28;20462;-73
2023/07/20 02:37:45;;;;;;;3.47;2.20;;;17.10;85.30;;;;;;5016494;28;20640;-73
2023/07/20 02:40:13;;;;;;;3.70;2.67;;;17.00;86.80;;;;;;5033041;28;20522;-72
2023/07/20 02:42:42;;;;;;;3.70;2.73;;;16.90;87.80;;;;;;5032395;28;20873;-72
2023/07/20 02:45:11;;;;;;;2.70;2.23;;;16.90;87.90;;;;;;5032703;28;20506;-72
2023/07/20 02:47:39;;;;;;;4.47;2.60;;;16.80;89.10;;;;;;5032609;28;20447;-72
2023/07/20 02:50:08;;;;;;;3.57;2.37;;;16.80;89.70;;;;;;5032520;28;20468;-72
2023/07/20 02:52:38;;;;;;;3.10;2.80;;;16.80;90.00;;;;;;5032364;28;20536;-72
2023/07/20 02:55:07;;;;;;;4.07;2.40;;;16.80;90.90;;;;;;5020679;28;21027;-72
2023/07/20 02:57:35;;;;;;;3.43;2.67;;;16.70;90.50;;;;;;5012771;28;20442;-72
2023/07/20 03:00:06;;;;;;;2.77;2.20;;;16.60;91.50;;;;;;5012752;28;20468;-72
2023/07/20 03:02:34;;;;;;;3.03;2.60;;;16.70;91.10;;;;;;5011162;28;21028;-71
2023/07/20 03:05:05;;;;;;;4.03;2.60;;;16.70;91.30;;;;;;5012543;28;20450;-73
2023/07/20 03:07:33;;;;;;;3.00;2.30;;;16.60;91.50;;;;;;5012621;28;20444;-72
2023/07/20 03:10:02;;;;;;;4.93;3.00;;;16.60;91.70;;;;;;5012090;28;20560;-72
2023/07/20 03:12:30;;;;;;;3.10;2.50;;;16.50;92.00;;;;;;5011875;28;20463;-72
2023/07/20 03:14:58;;;;;;;3.17;2.80;;;16.50;92.40;;;;;;5012062;28;20544;-71
2023/07/20 03:17:28;;;;;;;5.13;2.37;;;16.50;92.40;;;;;;5011950;28;20456;-73
2023/07/20 03:19:56;;;;;;;5.27;2.90;;;16.50;92.90;;;;;;5012005;28;20469;-72
2023/07/20 03:22:24;;;;;;;3.27;2.43;;;16.40;93.50;;;;;;5012017;28;20513;-73
2023/07/20 03:24:52;;;;;;;3.70;2.30;;;16.40;93.80;;;;;;5012196;28;20527;-71
2023/07/20 03:27:20;;;;;;;2.87;2.57;;;16.30;94.00;;;;;;5012957;28;20448;-72
2023/07/20 03:29:50;;;;;;;4.57;2.47;;;16.20;94.80;;;;;;5011925;28;20465;-72
2023/07/20 03:32:18;;;;;;;4.00;2.63;;;16.20;94.80;;;;;;5011827;28;20539;-72
2023/07/20 03:34:48;;;;;;;3.53;2.67;;;16.20;95.00;;;;;;5011891;28;20495;-73
2023/07/20 03:37:16;;;;;;;6.50;2.73;;;16.10;95.50;;;;;;5011909;28;20966;-73
2023/07/20 03:39:44;;;;;;;4.07;2.40;;;16.10;96.00;;;;;;5011969;28;20506;-73
2023/07/20 03:42:12;;;;;;;4.30;2.77;;;16.10;96.30;;;;;;5011928;28;20482;-73
2023/07/20 03:44:40;;;;;;;3.93;2.77;;;16.10;96.60;;;;;;5013357;28;20447;-72
2023/07/20 03:47:09;;;;;;;4.70;2.67;;;16.00;96.80;;;;;;5011869;28;20462;-72
2023/07/20 03:49:37;;;;;;;2.97;2.33;;;16.00;97.10;;;;;;5011510;28;21053;-73
2023/07/20 03:52:07;;;;;;;4.50;2.60;;;16.00;97.50;;;;;;5012958;28;20541;-71
2023/07/20 03:54:34;;;;;;;4.03;2.70;;;16.00;97.70;;;;;;5011107;28;20443;-72
2023/07/20 03:57:02;;;;;;;3.30;3.00;;;15.90;98.00;;;;;;5011403;28;20453;-71
2023/07/20 03:59:30;;;;;;;5.03;2.80;;;16.00;98.00;;;;;;5011371;28;20556;-72
2023/07/20 04:01:58;;;;;;;3.80;3.33;;;16.00;98.20;;;;;;5011081;28;20984;-71
2023/07/20 04:04:26;;;;;;;3.53;2.97;;;16.00;98.30;;;;;;5011108;28;21132;-72
2023/07/20 04:06:54;;;;;;;5.27;2.87;;;16.00;98.70;;;;;;5029858;28;20500;-71
2023/07/20 04:09:23;;;;;;;2.93;2.30;;;16.00;99.20;;;;;;5031144;28;20457;-72
2023/07/20 04:11:51;;;;;;;4.37;2.93;;;16.00;98.70;;;;;;5035059;28;20536;-72
2023/07/20 04:14:19;;;;;;;4.07;2.70;;;16.00;98.90;;;;;;5036566;28;20517;-71
2023/07/20 04:16:47;;;;;;;3.17;2.40;;;16.10;99.00;;;;;;5037767;28;20445;-71
2023/07/20 04:19:17;;;;;;;3.30;2.50;;;16.10;99.30;;;;;;5034957;28;20488;-71
2023/07/20 04:21:45;;;;;;;5.07;4.17;;;16.10;99.40;;;;;;5034941;28;21220;-70
2023/07/20 04:24:13;;;;;;;4.73;2.93;;;16.10;99.40;;;;;;5034372;28;20436;-70
2023/07/20 04:26:43;;;;;;;4.53;2.97;;;16.20;99.80;;;;;;5035015;28;20824;-71
2023/07/20 04:29:11;;;;;;;3.80;2.83;;;16.30;99.20;;;;;;5036636;28;20452;-70
2023/07/20 04:31:39;;;;;;;5.37;3.13;;;16.40;99.20;;;;;;5038892;28;20483;-70
2023/07/20 04:34:06;;;;;;;4.80;2.80;;;16.50;99.80;;;;;;5039305;28;20517;-72
2023/07/20 04:36:34;;;;;;;5.87;2.60;;;16.60;99.20;;;;;;5031057;28;20449;-70
2023/07/20 04:39:03;;;;;;;5.27;4.77;;;16.70;99.30;;;;;;5030577;28;21011;-71
2023/07/20 04:41:34;;;;;;;5.90;3.33;;;16.70;99.40;;;;;;5031441;28;20445;-71
2023/07/20 04:44:04;;;;;;;4.10;2.80;;;16.70;98.80;;;;;;5032078;28;20551;-72
2023/07/20 04:46:32;;;;;;;4.90;3.40;;;16.80;98.90;;;;;;5031726;28;20495;-71
2023/07/20 04:49:00;;;;;;;3.47;3.00;;;16.90;98.10;;;;;;5028524;28;20461;-70
2023/07/20 04:51:30;;;;;;;4.13;2.83;;;17.00;97.90;;;;;;5039206;28;20577;-71
2023/07/20 04:53:58;;;;;;;3.63;3.27;;;17.00;97.80;;;;;;5038341;28;20449;-70
2023/07/20 04:56:26;;;;;;;3.50;2.77;;;17.00;98.00;;;;;;5039538;28;20496;-69
2023/07/20 04:58:54;;;;;;;5.90;2.70;;;17.00;98.10;;;;;;5045543;28;20498;-69
2023/07/20 05:01:26;;;;;;;2.77;2.47;;;17.00;97.90;;;;;;5011879;28;20473;-70
2023/07/20 05:03:54;;;;;;;5.23;3.43;;;17.10;98.10;;;;;;5029281;28;20491;-68
2023/07/20 05:06:23;;;;;;;4.00;2.13;;;17.20;97.70;;;;;;5029957;28;20479;-67
2023/07/20 05:08:51;;;;;;;4.10;2.60;;;17.30;97.90;;;;;;5036757;28;20472;-69
2023/07/20 05:11:19;;;;;;;4.63;2.90;;;17.30;98.10;;;;;;5039506;28;20456;-69
2023/07/20 05:13:47;;;;;;;2.70;2.50;;;17.50;97.70;;;;;;5034923;28;20509;-68
2023/07/20 05:16:15;;;;;;;5.30;2.60;;;17.50;98.40;;;;;;5035456;28;20449;-69
2023/07/20 05:18:45;;;;;;;3.50;3.20;;;17.60;97.80;;;;;;5039924;28;20441;-70
2023/07/20 05:21:14;;;;;;;2.90;2.57;;;17.70;98.00;;;;;;5035393;28;20460;-71
2023/07/20 05:23:42;;;;;;;4.70;2.53;;;17.80;97.60;;;;;;5034885;28;20484;-71
2023/07/20 05:26:10;;;;;;;3.83;2.70;;;17.80;97.50;;;;;;5034682;28;20507;-70
2023/07/20 05:28:38;;;;;;;3.23;2.90;;;18.00;97.30;;;;;;5035654;28;20456;-71
2023/07/20 05:31:07;;;;;;;2.53;2.33;;;18.00;97.10;;;;;;5034409;28;20542;-71
2023/07/20 05:33:36;;;;;;;4.53;2.33;;;18.10;96.80;;;;;;5035298;28;20448;-70
2023/07/20 05:36:06;;;;;;;3.47;2.50;;;18.20;96.50;;;;;;5035053;28;21023;-70
2023/07/20 05:38:33;;;;;;;4.37;2.60;;;18.20;96.40;;;;;;5034978;28;20495;-68
2023/07/20 05:41:03;;;;;;;3.30;2.50;;;18.30;96.00;;;;;;5034418;28;20469;-69
2023/07/20 05:43:31;;;;;;;3.50;2.73;;;18.40;95.90;;;;;;5035510;28;21044;-68
2023/07/20 05:45:59;;;;;;;6.00;2.93;;;18.40;96.10;;;;;;5043227;28;20508;-68
2023/07/20 05:48:27;;;;;;;6.50;2.40;;;18.50;96.00;;;;;;5047543;28;21023;-70
2023/07/20 05:50:56;;;;;;;3.67;2.50;;;18.50;95.60;;;;;;5050071;28;20555;-69
2023/07/20 05:53:25;;;;;;;3.40;2.70;;;18.70;95.40;;;;;;5035227;28;20445;-68
2023/07/20 05:55:53;;;;;;;4.63;2.87;;;18.80;95.20;;;;;;5034662;28;20445;-69
2023/07/20 05:58:22;;;;;;;2.53;2.20;;;18.90;94.80;;;;;;5035825;28;20939;-69
2023/07/20 06:00:50;;;;;;;2.23;2.00;;;18.90;95.20;;;;;;5036247;28;20500;-69
2023/07/20 06:03:21;;;;;;;4.87;2.33;;;19.00;94.50;;;;;;5036847;28;20476;-70
2023/07/20 06:05:49;;;;;;;3.90;2.50;;;19.10;94.00;;;;;;5036550;28;20449;-70
2023/07/20 06:08:17;;;;;;;4.80;1.97;;;19.10;93.90;;;;;;5036596;28;20503;-70
2023/07/20 06:10:51;;;;;;;4.53;2.73;;;19.20;94.30;;;;;;5035672;28;20515;-69
2023/07/20 06:13:19;;;;;;;4.10;2.07;;;19.30;93.80;;;;;;5036043;28;20943;-70
2023/07/20 06:15:47;;;;;;;3.17;2.27;;;19.20;93.30;;;;;;5036023;28;21039;-70
2023/07/20 06:18:16;;;;;;;4.60;2.50;;;19.30;92.90;;;;;;5036292;28;20943;-70
2023/07/20 06:20:43;;;;;;;3.97;2.17;;;19.30;93.10;;;;;;5035825;28;20511;-69
2023/07/20 06:23:11;;;;;;;4.67;2.10;;;19.40;93.20;;;;;;5035167;28;20485;-71
2023/07/20 06:25:39;;;;;;;4.60;2.10;;;19.50;92.60;;;;;;5036803;28;20441;-69
2023/07/20 06:28:09;;;;;;;8.50;2.40;;;19.50;93.00;;;;;;5036415;28;20477;-70
2023/07/20 06:30:37;;;;;;;3.20;2.03;;;19.50;92.20;;;;;;5037720;28;20473;-70
2023/07/20 06:33:05;;;;;;;4.63;2.60;;;19.50;92.30;;;;;;5036383;28;20441;-70
2023/07/20 06:35:35;;;;;;;4.33;2.57;;;19.60;91.90;;;;;;5036979;28;20433;-69
2023/07/20 06:38:03;;;;;;;2.73;2.27;;;19.70;91.90;;;;;;5039042;28;20763;-70
2023/07/20 06:40:34;;;;;;;3.50;1.97;;;19.80;91.60;;;;;;4979186;28;20494;-71
2023/07/20 06:43:02;;;;;;;5.00;2.70;;;19.80;92.20;;;;;;4978514;28;20570;-71
2023/07/20 06:45:34;;;;;;;3.70;2.37;;;19.90;92.80;;;;;;4979424;28;20993;-70
2023/07/20 06:48:03;;;;;;;6.00;2.70;;;20.10;92.70;;;;;;4978773;28;20448;-71
2023/07/20 06:50:31;;;;;;;4.93;2.20;;;20.10;92.10;;;;;;4978679;28;21109;-70
2023/07/20 06:52:59;;;;;;;3.07;2.30;;;20.20;92.10;;;;;;4961920;28;20522;-70
2023/07/20 06:55:27;;;;;;;2.40;2.20;;;20.30;91.60;;;;;;4978433;28;20524;-70
2023/07/20 06:57:56;;;;;;;4.43;2.23;;;20.40;91.80;;;;;;4983198;28;20492;-70
2023/07/20 07:00:26;;;;;;;3.20;2.43;;;20.40;91.30;;;;;;5018469;28;20462;-72
2023/07/20 07:02:56;;;;;;;4.70;2.33;;;20.50;91.30;;;;;;5017152;28;20454;-71
2023/07/20 07:05:24;;;;;;;3.50;2.20;;;20.60;91.40;;;;;;5017729;28;20520;-70
2023/07/20 07:07:52;;;;;;;5.67;2.50;;;20.60;91.00;;;;;;5016186;28;20477;-73
2023/07/20 07:10:20;;;;;;;2.60;2.37;;;20.60;90.40;;;;;;5012188;28;20470;-70
2023/07/20 07:12:48;;;;;;;3.93;2.10;;;20.50;91.10;;;;;;5011827;28;20442;-70
2023/07/20 07:15:17;;;;;;;3.93;2.60;;;20.60;91.00;;;;;;5012542;28;20475;-70
2023/07/20 07:17:45;;;;;;;3.90;2.50;;;20.70;90.00;;;;;;5012464;28;20438;-70
2023/07/20 07:20:14;;;;;;;4.23;2.30;;;20.70;90.10;;;;;;5012232;28;20473;-70
2023/07/20 07:22:46;;;;;;;5.87;2.90;;;20.90;89.10;;;;;;5011957;28;20468;-70
2023/07/20 07:25:15;;;;;;;3.23;2.40;;;21.10;90.00;;;;;;5011992;28;20482;-71
2023/07/20 07:27:50;;;;;;;5.10;2.37;;;21.30;88.20;;;;;;5011989;28;20680;-71
2023/07/20 07:30:18;;;;;;;3.03;2.73;;;21.30;88.00;;;;;;5011841;28;20482;-70
2023/07/20 07:32:46;;;;;;;4.37;2.67;;;21.20;86.80;;;;;;5011576;28;20457;-71
2023/07/20 07:35:15;;;;;;;4.00;2.30;;;21.10;87.30;;;;;;5011938;28;20453;-70
2023/07/20 07:37:43;;;;;;;5.13;2.53;;;21.10;87.10;;;;;;5012064;28;20979;-70
2023/07/20 07:40:31;;;;;;;5.83;2.30;;;21.20;87.70;;;;;;5011855;28;20485;-70
2023/07/20 07:42:59;;;;;;;2.97;2.57;;;21.60;87.40;;;;;;5011438;28;20545;-70
2023/07/20 07:45:27;;;;;;;4.13;2.40;;;21.90;85.80;;;;;;5011859;28;20486;-70
2023/07/20 07:47:55;;;;;;;5.40;2.60;;;22.10;83.80;;;;;;5011325;28;20536;-70
2023/07/20 07:50:24;;;;;;;4.40;2.40;;;22.10;82.20;;;;;;5011658;28;20484;-70
2023/07/20 07:52:52;;;;;;;5.00;2.20;;;21.80;82.50;;;;;;5011108;28;20548;-70
2023/07/20 07:55:20;;;;;;;4.40;2.43;;;21.80;82.60;;;;;;5011572;28;20463;-70
2023/07/20 07:57:48;;;;;;;3.20;2.40;;;21.80;81.40;;;;;;5011578;28;20445;-71
2023/07/20 08:00:18;;;;;;;6.30;2.50;;;21.90;81.50;;;;;;5011523;28;20462;-72
2023/07/20 08:02:47;;;;;;;4.85;2.70;;;22.10;81.00;;;;;;5010023;28;20445;-71
2023/07/20 08:05:16;;;;;;;3.63;2.37;;;22.50;79.90;;;;;;5011266;28;20226;-70
2023/07/20 08:07:46;;;;;;;4.20;2.60;;;22.30;77.70;;;;;;5011632;28;20442;-68
2023/07/20 08:10:14;;;;;;;3.00;2.17;;;22.40;78.00;;;;;;5011320;28;21200;-67
2023/07/20 08:12:43;;;;;;;4.03;2.70;;;22.30;77.90;;;;;;5011036;28;20454;-69
2023/07/20 08:15:12;;;;;;;2.43;2.23;;;22.30;77.40;;;;;;5011243;28;20438;-69
2023/07/20 08:17:40;;;;;;;5.00;2.53;;;22.30;77.20;;;;;;5011090;28;20534;-69
2023/07/20 08:20:11;;;;;;;4.30;2.53;;;22.40;76.40;;;;;;5011365;28;20466;-70
2023/07/20 08:22:40;;;;;;;4.23;2.63;;;22.40;76.70;;;;;;5010645;28;20457;-68
2023/07/20 08:25:10;;;;;;;3.10;2.03;;;22.40;76.60;;;;;;5011266;28;20510;-68
2023/07/20 08:27:40;;;;;;;2.77;2.47;;;22.10;77.40;;;;;;5011198;28;20446;-68
2023/07/20 08:30:09;;;;;;;4.17;2.33;;;21.90;77.50;;;;;;5011290;28;20470;-68
2023/07/20 08:32:37;;;;;;;3.97;2.57;;;21.60;78.30;;;;;;5011320;28;20815;-68
2023/07/20 08:35:07;;;;;;;5.73;2.67;;;21.60;80.50;;;;;;5011327;28;20442;-68
2023/07/20 08:37:35;;;;;;;4.30;2.23;;;21.90;79.60;;;;;;5010900;28;20453;-69
2023/07/20 08:40:08;;;;;;;5.20;2.43;;;22.30;77.00;;;;;;5010948;28;21152;-68
2023/07/20 08:42:39;;;;;;;3.73;2.43;;;22.70;73.90;;;;;;5010473;28;20441;-71
2023/07/20 08:45:10;;;;;;;2.33;2.17;;;23.20;72.40;;;;;;5010963;28;20514;-69
2023/07/20 08:47:38;;;;;;;2.83;2.53;;;23.20;68.60;;;;;;5010792;28;20955;-68
2023/07/20 08:50:10;;;;;;;2.37;1.90;;;22.90;69.30;;;;;;5010959;28;20940;-69
2023/07/20 08:52:38;;;;;;;2.80;2.20;;;23.10;71.70;;;;;;5010092;28;20449;-70
2023/07/20 08:55:07;;;;;;;8.40;2.40;;;23.30;70.00;;;;;;5010537;28;20438;-67
2023/07/20 08:57:37;;;;;;;4.23;2.50;;;23.50;69.40;;;;;;5010447;28;20470;-67
2023/07/20 09:00:07;;;;;;;2.20;2.00;;;23.70;68.70;;;;;;5009686;28;20466;-68
2023/07/20 09:02:40;;;;;;;3.37;2.20;;;23.60;67.80;;;;;;5010096;28;20449;-68
2023/07/20 09:05:10;;;;;;;2.57;2.17;;;23.40;67.60;;;;;;5010229;28;20482;-69
2023/07/20 09:07:40;;;;;;;6.40;2.57;;;23.20;69.30;;;;;;5010451;28;20473;-69
2023/07/20 09:10:08;;;;;;;3.27;2.30;;;22.90;68.30;;;;;;5010409;28;20454;-70
2023/07/20 09:12:39;;;;;;;6.43;2.40;;;23.00;70.40;;;;;;5010046;28;21021;-71
2023/07/20 09:15:09;;;;;;;4.67;2.70;;;23.30;66.90;;;;;;5010328;28;20438;-69
2023/07/20 09:17:37;;;;;;;3.47;2.20;;;23.60;65.70;;;;;;5010368;28;20454;-72
2023/07/20 09:20:10;;;;;;;3.90;2.40;;;24.00;65.90;;;;;;5011263;28;20471;-68
2023/07/20 09:22:40;;;;;;;4.40;2.40;;;23.70;63.80;;;;;;5020267;28;20476;-70
2023/07/20 09:25:11;;;;;;;3.53;2.87;;;23.30;66.50;;;;;;5010072;28;20987;-69
2023/07/20 09:27:42;;;;;;;3.20;2.40;;;23.00;66.20;;;;;;5010406;28;20441;-69
2023/07/20 09:30:13;;;;;;;3.00;2.50;;;22.80;67.30;;;;;;5010786;28;20479;-68
2023/07/20 09:32:46;;;;;;;2.33;2.13;;;22.50;68.30;;;;;;5048840;28;20448;-68
2023/07/20 09:35:18;;;;;;;3.00;2.47;;;22.30;68.70;;;;;;5032626;28;20475;-70
2023/07/20 09:37:53;;;;;;;2.60;2.27;;;22.50;67.80;;;;;;5029786;28;20523;-69
2023/07/20 09:40:41;;;;;;;2.27;2.07;;;22.80;67.80;;;;;;5029874;28;20487;-70
2023/07/20 09:43:14;;;;;;;5.73;2.23;;;23.40;65.70;;;;;;5029559;28;20447;-72
2023/07/20 09:45:45;;;;;;;2.00;1.90;;;23.80;62.90;;;;;;5029867;28;20526;-67
2023/07/20 09:48:16;;;;;;;2.10;1.47;;;24.10;60.80;;;;;;5029677;28;20465;-69
2023/07/20 09:50:50;;;;;;;3.83;2.50;;;24.10;57.50;;;;;;5021449;28;20550;-69
2023/07/20 09:53:19;;;;;;;3.27;2.50;;;23.60;57.30;;;;;;5029418;28;20441;-68
2023/07/20 09:55:48;;;;;;;3.30;1.70;;;23.30;58.90;;;;;;5029717;28;20451;-68
2023/07/20 09:58:18;;;;;;;3.33;2.30;;;23.20;57.80;;;;;;5029922;28;20502;-68
2023/07/20 10:00:49;;;;;;;3.80;1.77;;;23.50;58.20;;;;;;5029488;28;20475;-69
2023/07/20 10:03:21;;;;;;;4.00;1.73;;;23.70;57.00;;;;;;5029248;28;20443;-68
2023/07/20 10:05:55;;;;;;;2.10;1.90;;;24.10;56.00;;;;;;5018993;28;20998;-68
2023/07/20 10:08:26;;;;;;;2.00;1.67;;;23.70;55.90;;;;;;5009900;28;20457;-70
2023/07/20 10:11:00;;;;;;;2.03;1.60;;;24.40;56.70;;;;;;5010667;28;20489;-70
2023/07/20 10:13:31;;;;;;;2.43;1.50;;;25.20;54.60;;;;;;5013244;28;20525;-68
2023/07/20 10:16:04;;;;;;;4.67;2.40;;;25.90;52.20;;;;;;5013859;28;20540;-68
2023/07/20 10:18:38;;;;;;;1.97;1.40;;;25.50;52.30;;;;;;5013683;28;20477;-70
2023/07/20 10:21:08;;;;;;;2.30;1.80;;;25.70;52.00;;;;;;5016402;28;20530;-68
2023/07/20 10:23:40;;;;;;;2.47;1.67;;;26.10;48.30;;;;;;5032815;28;20433;-69
2023/07/20 10:26:09;;;;;;;2.73;1.50;;;25.80;49.80;;;;;;5033275;28;21031;-70
2023/07/20 10:28:39;;;;;;;3.90;1.97;;;25.90;47.80;;;;;;5031542;28;20444;-68
2023/07/20 10:31:09;;;;;;;3.33;1.43;;;26.20;49.60;;;;;;5032891;28;21057;-68
2023/07/20 10:33:38;;;;;;;3.00;1.70;;;26.30;48.00;;;;;;5032632;28;20436;-68
2023/07/20 10:36:07;;;;;;;1.70;1.50;;;26.30;47.30;;;;;;5032882;28;20455;-69
2023/07/20 10:38:42;;;;;;;1.90;1.70;;;26.20;46.80;;;;;;5022896;28;20584;-69
2023/07/20 10:41:20;;;;;;;2.37;1.80;;;26.40;45.30;;;;;;5012941;28;20496;-68
2023/07/20 10:43:50;;;;;;;3.07;2.03;;;26.60;46.20;;;;;;5012857;28;20870;-68
2023/07/20 10:46:43;;;;;;;1.80;1.57;;;26.80;45.20;;;;;;5012975;28;20477;-68
2023/07/20 10:49:12;;;;;;;1.30;1.10;;;26.60;44.90;;;;;;5013179;28;20484;-66
2023/07/20 10:51:40;;;;;;;2.23;1.70;;;26.60;45.10;;;;;;5013042;28;20929;-68
2023/07/20 10:54:35;;;;;;;3.60;2.10;;;26.90;43.50;;;;;;5014473;28;20959;-67
2023/07/20 10:57:31;;;;;;;5.93;1.67;;;26.80;42.80;;;;;;5032408;28;20482;-70
2023/07/20 11:00:14;;;;;;;2.53;1.37;;;26.60;44.20;;;;;;5031462;28;20456;-68
2023/07/20 11:02:44;;;;;;;1.33;1.23;;;26.70;44.20;;;;;;5012900;28;20442;-68
2023/07/20 11:05:37;;;;;;;5.27;1.70;;;26.70;44.40;;;;;;5012964;28;20482;-69
2023/07/20 11:08:10;;;;;;;7.53;2.17;;;26.40;43.40;;;;;;5012749;28;20541;-69
2023/07/20 11:10:38;;;;;;;1.70;1.53;;;26.10;44.70;;;;;;5012783;28;20454;-68
2023/07/20 11:13:24;;;;;;;2.13;1.40;;;26.50;44.10;;;;;;5012516;28;20445;-68
2023/07/20 11:16:06;;;;;;;2.43;1.40;;;26.30;43.10;;;;;;5012977;28;20860;-69
2023/07/20 11:18:39;;;;;;;3.30;1.60;;;26.50;43.40;;;;;;5013270;28;20549;-70
2023/07/20 11:21:10;;;;;;;2.80;1.60;;;27.10;42.60;;;;;;5012611;28;20454;-68
2023/07/20 11:23:40;;;;;;;1.73;1.10;;;26.90;42.20;;;;;;5011541;28;20517;-71
2023/07/20 11:26:08;;;;;;;3.47;2.17;;;27.40;42.40;;;;;;5012122;28;20481;-68
2023/07/20 11:28:36;;;;;;;5.43;1.73;;;27.80;41.30;;;;;;5012569;28;20446;-68
2023/07/20 11:31:05;;;;;;;2.20;1.70;;;27.80;41.30;;;;;;5012249;28;20470;-68
2023/07/20 11:33:33;;;;;;;2.50;1.33;;;27.70;41.00;;;;;;5012020;28;20444;-68
2023/07/20 11:36:01;;;;;;;2.57;1.40;;;28.00;41.50;;;;;;5012316;28;20470;-68
2023/07/20 11:38:30;;;;;;;1.63;1.23;;;28.10;39.60;;;;;;5012242;28;20449;-67
2023/07/20 11:40:58;;;;;;;3.63;1.50;;;28.30;39.30;;;;;;5011600;28;20492;-68
2023/07/20 11:43:26;;;;;;;2.30;1.90;;;28.50;40.00;;;;;;5011271;28;20437;-67
2023/07/20 11:45:54;;;;;;;2.80;1.80;;;28.50;38.30;;;;;;5016363;28;20484;-67
2023/07/20 11:48:23;;;;;;;2.00;1.30;;;28.70;38.60;;;;;;5026015;28;20449;-68
2023/07/20 11:50:51;;;;;;;2.23;1.40;;;29.10;36.60;;;;;;5029139;28;20497;-68
2023/07/20 11:53:20;;;;;;;1.97;1.87;;;28.90;36.70;;;;;;5025601;28;20552;-69
2023/07/20 11:55:49;;;;;;;1.80;1.37;;;28.80;36.90;;;;;;5012151;28;20438;-68
2023/07/20 11:58:17;;;;;;;3.00;1.20;;;29.30;36.00;;;;;;5011409;28;20630;-68
2023/07/20 12:00:46;;;;;;;3.67;2.23;;;29.80;36.70;;;;;;5033632;28;20465;-66
2023/07/20 12:03:14;;;;;;;2.30;1.80;;;29.30;35.80;;;;;;5040957;28;20460;-68
2023/07/20 12:05:44;;;;;;;1.43;1.33;;;28.80;37.50;;;;;;5046525;28;20533;-66
2023/07/20 12:08:28;;;;;;;3.60;2.33;;;29.10;36.30;;;;;;5043128;28;20545;-67
2023/07/20 12:10:56;;;;;;;5.87;5.37;;;29.80;36.30;;;;;;5036458;28;20460;-67
2023/07/20 12:13:25;;;;;;;4.10;2.57;;;29.60;35.60;;;;;;5030330;28;20456;-67
2023/07/20 12:15:55;;;;;;;3.30;2.30;;;29.60;35.10;;;;;;5028379;28;20824;-68
2023/07/20 12:18:24;;;;;;;4.30;2.83;;;29.60;35.80;;;;;;5028780;28;20514;-68
2023/07/20 12:21:00;;;;;;;4.77;2.90;;;29.50;35.40;;;;;;5031102;28;20476;-66
2023/07/20 12:23:35;;;;;;;6.17;5.57;;;29.40;35.40;;;;;;5018914;28;20514;-68
2023/07/20 12:26:03;;;;;;;2.33;2.13;;;29.00;36.40;;;;;;5034607;28;20895;-68
2023/07/20 12:28:32;;;;;;;1.80;1.50;;;29.10;36.80;;;;;;5030789;28;20437;-65
2023/07/20 12:31:00;;;;;;;2.23;1.63;;;29.20;35.80;;;;;;5031205;28;20472;-69
2023/07/20 12:33:28;;;;;;;3.60;3.17;;;29.20;36.20;;;;;;5031000;28;20927;-67
2023/07/20 12:35:58;;;;;;;4.43;2.70;;;29.20;35.60;;;;;;5032219;28;20449;-67
2023/07/20 12:38:28;;;;;;;2.70;2.07;;;29.00;35.20;;;;;;5030082;28;20445;-68
2023/07/20 12:40:56;;;;;;;3.93;3.63;;;29.70;36.80;;;;;;5030569;28;20847;-69
2023/07/20 12:43:24;;;;;;;8.33;3.63;;;30.90;33.80;;;;;;5020952;28;20446;-70
2023/07/20 12:45:52;;;;;;;3.93;3.33;;;31.30;33.10;;;;;;5026038;28;20473;-69
2023/07/20 12:48:20;;;;;;;3.87;1.70;;;30.70;33.20;;;;;;5023171;28;20437;-71
2023/07/20 12:50:48;;;;;;;4.80;2.27;;;30.80;33.80;;;;;;5030831;28;20529;-72
2023/07/20 12:53:17;;;;;;;3.00;2.10;;;30.30;32.70;;;;;;5019883;28;20534;-69
2023/07/20 12:55:45;;;;;;;3.10;2.07;;;29.90;34.30;;;;;;5019886;28;20449;-68
2023/07/20 12:58:14;;;;;;;4.27;3.90;;;30.30;32.90;;;;;;5017451;28;20496;-68
2023/07/20 13:00:42;;;;;;;3.30;1.93;;;30.60;32.00;;;;;;5020954;28;20458;-67
2023/07/20 13:03:10;;;;;;;5.30;3.37;;;30.90;33.20;;;;;;5019618;28;20524;-68